Time;durP1;ratioP1;P1;durP2;ratioP2;P2;SDS_P1;SDS_P2;PMS_P1;PMS_P2;Temp;Humidity;BMP_temperature;BMP_pressure;BME280_temperature;BME280_humidity;BME280_pressure;Samples;Min_cycle;Max_cycle;Signal;HPM_P1;HPM_P2
2023/01/03 00:00:21;;;;;;;22.33;10.90;;;;;;;;;;8301991;28;20502;-89
2023/01/03 00:04:45;;;;;;;13.40;7.25;;;;;;;;;;8288792;28;20049;-89
2023/01/03 00:08:49;;;;;;;17.50;8.68;;;;;;;;;;8301860;28;20050;-89
2023/01/03 00:12:51;;;;;;;14.48;8.60;;;;;;;;;;8301825;28;20050;-90
2023/01/03 00:16:56;;;;;;;19.55;9.82;;;;;;;;;;8301388;28;20480;-89
2023/01/03 00:21:05;;;;;;;16.27;8.38;;;;;;;;;;8301391;28;20073;-90
2023/01/03 00:25:08;;;;;;;17.20;9.05;;;;;;;;;;8301377;28;20595;-89
2023/01/03 00:29:12;;;;;;;14.30;8.25;;;;;;;;;;8275605;28;20458;-89
2023/01/03 00:33:14;;;;;;;15.73;8.27;;;;;;;;;;8269786;28;20127;-90
2023/01/03 00:37:18;;;;;;;16.85;9.13;;;;;;;;;;8293627;28;20137;-89
2023/01/03 00:41:22;;;;;;;17.65;8.50;;;;;;;;;;8300800;28;20042;-89
2023/01/03 00:45:25;;;;;;;15.60;8.15;;;;;;;;;;8300089;28;20050;-89
2023/01/03 00:49:28;;;;;;;15.95;8.52;;;;;;;;;;8299125;28;20524;-90
2023/01/03 00:53:32;;;;;;;16.08;8.10;;;;;;;;;;8300467;28;20405;-89
2023/01/03 00:57:35;;;;;;;18.23;9.40;;;;;;;;;;8300271;28;20517;-89
2023/01/03 01:01:40;;;;;;;16.45;8.15;;;;;;;;;;8300415;28;20088;-89
2023/01/03 01:05:42;;;;;;;15.05;8.43;;;;;;;;;;8284244;28;20046;-89
2023/01/03 01:09:47;;;;;;;18.48;8.70;;;;;;;;;;8300318;28;20457;-90
2023/01/03 01:13:50;;;;;;;20.20;8.73;;;;;;;;;;8299825;28;20132;-90
2023/01/03 01:17:53;;;;;;;18.65;9.07;;;;;;;;;;8299678;28;20417;-90
2023/01/03 01:21:56;;;;;;;18.73;8.77;;;;;;;;;;8288322;28;20056;-89
2023/01/03 01:26:02;;;;;;;19.60;9.32;;;;;;;;;;8285890;28;20089;-90
2023/01/03 01:30:05;;;;;;;18.08;9.65;;;;;;;;;;8267104;28;20042;-89
2023/01/03 01:34:09;;;;;;;16.00;9.05;;;;;;;;;;8276023;28;20046;-90
2023/01/03 01:38:11;;;;;;;18.08;9.30;;;;;;;;;;8270259;28;20046;-89
2023/01/03 01:46:36;;;;;;;16.77;9.05;;;;;;;;;;8280189;28;20388;-89
2023/01/03 01:50:43;;;;;;;18.13;9.02;;;;;;;;;;8280971;28;20046;-90
2023/01/03 01:54:46;;;;;;;15.93;7.88;;;;;;;;;;8278701;28;20058;-89
2023/01/03 01:58:53;;;;;;;17.17;8.65;;;;;;;;;;8284972;28;20105;-89
2023/01/03 02:02:56;;;;;;;21.77;10.18;;;;;;;;;;8293766;28;20210;-90
2023/01/03 02:07:00;;;;;;;16.63;8.55;;;;;;;;;;8267073;28;20042;-89
2023/01/03 02:11:29;;;;;;;17.52;8.20;;;;;;;;;;8264228;28;20686;-88
2023/01/03 02:15:54;;;;;;;16.38;8.55;;;;;;;;;;8267413;28;20054;-89
2023/01/03 02:20:15;;;;;;;15.20;8.30;;;;;;;;;;8280479;28;20053;-89
2023/01/03 02:24:53;;;;;;;16.17;7.72;;;;;;;;;;8283880;28;20410;-89
2023/01/03 02:29:33;;;;;;;17.98;8.38;;;;;;;;;;8289719;28;20053;-90
2023/01/03 02:33:46;;;;;;;16.40;8.73;;;;;;;;;;8282217;28;20043;-89
2023/01/03 02:37:57;;;;;;;15.23;7.18;;;;;;;;;;8264340;28;20410;-89
2023/01/03 02:46:30;;;;;;;12.70;7.28;;;;;;;;;;8289025;28;20400;-90
2023/01/03 02:50:40;;;;;;;14.25;7.40;;;;;;;;;;8293110;28;20048;-89
2023/01/03 02:54:48;;;;;;;16.63;7.22;;;;;;;;;;8273343;28;20070;-91
2023/01/03 02:58:56;;;;;;;13.93;6.90;;;;;;;;;;8296268;28;20045;-89
2023/01/03 03:03:01;;;;;;;12.75;7.25;;;;;;;;;;8293138;28;20064;-89
2023/01/03 03:07:11;;;;;;;12.35;7.68;;;;;;;;;;8285754;28;20068;-89
2023/01/03 03:15:39;;;;;;;14.52;7.18;;;;;;;;;;8279287;28;20172;-88
2023/01/03 03:28:35;;;;;;;15.73;6.95;;;;;;;;;;8287342;28;20644;-88
2023/01/03 03:32:39;;;;;;;12.35;7.05;;;;;;;;;;8282748;28;20057;-87
2023/01/03 03:36:49;;;;;;;14.23;7.32;;;;;;;;;;8293778;28;20073;-88
2023/01/03 03:45:35;;;;;;;14.43;7.53;;;;;;;;;;8287000;28;20510;-89
2023/01/03 03:49:41;;;;;;;13.82;7.13;;;;;;;;;;8295806;28;20467;-88
2023/01/03 03:53:46;;;;;;;12.98;7.70;;;;;;;;;;8296013;28;20130;-90
2023/01/03 03:57:54;;;;;;;13.45;7.03;;;;;;;;;;8295850;28;20072;-89
2023/01/03 04:02:01;;;;;;;13.32;6.68;;;;;;;;;;8295997;28;20124;-90
2023/01/03 04:06:08;;;;;;;18.40;7.53;;;;;;;;;;8295801;28;20547;-89
2023/01/03 04:10:12;;;;;;;16.65;7.57;;;;;;;;;;8295532;28;20050;-90
2023/01/03 04:14:17;;;;;;;12.93;7.47;;;;;;;;;;8295498;28;20070;-89
2023/01/03 04:18:19;;;;;;;15.50;7.72;;;;;;;;;;8295598;28;20133;-90
2023/01/03 04:22:22;;;;;;;14.75;7.05;;;;;;;;;;8296951;28;20546;-89
2023/01/03 04:26:25;;;;;;;12.70;7.78;;;;;;;;;;8301122;28;20054;-89
2023/01/03 04:30:29;;;;;;;14.45;8.02;;;;;;;;;;8293315;28;20486;-89
2023/01/03 04:34:32;;;;;;;21.75;10.77;;;;;;;;;;8300874;28;20054;-90
2023/01/03 04:38:34;;;;;;;23.33;10.73;;;;;;;;;;8300948;28;20052;-89
2023/01/03 04:47:01;;;;;;;14.35;7.97;;;;;;;;;;8300516;28;20072;-89
2023/01/03 04:51:04;;;;;;;16.17;9.55;;;;;;;;;;8300308;28;20121;-90
2023/01/03 04:55:08;;;;;;;12.00;7.75;;;;;;;;;;8300177;28;20141;-90
2023/01/03 04:59:11;;;;;;;13.85;7.68;;;;;;;;;;8300039;28;20401;-89
2023/01/03 05:03:15;;;;;;;19.00;7.75;;;;;;;;;;8300069;28;20050;-89
2023/01/03 05:07:18;;;;;;;14.60;7.70;;;;;;;;;;8299794;28;20045;-89
2023/01/03 05:11:21;;;;;;;15.75;8.57;;;;;;;;;;8299819;28;20046;-90
2023/01/03 05:15:23;;;;;;;14.13;8.27;;;;;;;;;;8286642;28;20038;-90
2023/01/03 05:19:28;;;;;;;16.13;9.27;;;;;;;;;;8287846;28;20057;-89
2023/01/03 05:27:52;;;;;;;12.88;6.80;;;;;;;;;;8299403;28;20497;-89
2023/01/03 05:31:54;;;;;;;13.82;7.70;;;;;;;;;;8299083;28;20050;-90
2023/01/03 05:35:59;;;;;;;16.80;8.02;;;;;;;;;;8295319;28;20170;-89
2023/01/03 05:40:01;;;;;;;13.65;6.85;;;;;;;;;;8297472;28;20173;-89
2023/01/03 05:44:05;;;;;;;12.13;7.20;;;;;;;;;;8296022;28;20058;-89
2023/01/03 05:48:08;;;;;;;14.18;6.25;;;;;;;;;;8299033;28;20060;-90
2023/01/03 05:52:13;;;;;;;12.57;7.50;;;;;;;;;;8294344;28;20133;-89
2023/01/03 05:56:16;;;;;;;14.50;9.32;;;;;;;;;;8298408;28;20119;-90
2023/01/03 06:00:20;;;;;;;12.70;6.10;;;;;;;;;;8298250;28;20475;-89
2023/01/03 06:04:22;;;;;;;10.60;5.63;;;;;;;;;;8298213;28;20053;-89
2023/01/03 06:08:27;;;;;;;11.23;6.43;;;;;;;;;;8297946;28;20049;-89
2023/01/03 06:12:29;;;;;;;10.25;6.78;;;;;;;;;;8297937;28;20453;-89
2023/01/03 06:20:52;;;;;;;8.07;5.10;;;;;;;;;;8297943;28;20482;-90
2023/01/03 06:24:57;;;;;;;8.95;4.93;;;;;;;;;;8297575;28;20053;-89
2023/01/03 06:28:59;;;;;;;10.80;4.97;;;;;;;;;;8284546;28;20076;-89
2023/01/03 06:33:02;;;;;;;10.18;5.45;;;;;;;;;;8292101;28;20126;-89
2023/01/03 06:37:05;;;;;;;9.18;5.35;;;;;;;;;;8290106;28;20042;-89
2023/01/03 06:41:10;;;;;;;9.38;4.78;;;;;;;;;;8287684;28;20041;-89
2023/01/03 06:54:12;;;;;;;9.32;5.50;;;;;;;;;;8243514;28;20066;-88
2023/01/03 06:58:16;;;;;;;9.95;4.85;;;;;;;;;;8266843;28;20498;-88
2023/01/03 07:02:19;;;;;;;7.38;4.15;;;;;;;;;;8296215;28;20041;-88
2023/01/03 07:06:22;;;;;;;9.35;5.22;;;;;;;;;;8278034;28;20046;-89
2023/01/03 07:10:24;;;;;;;10.93;5.90;;;;;;;;;;8269926;28;20410;-88
2023/01/03 07:14:29;;;;;;;7.90;5.28;;;;;;;;;;8276489;28;20051;-89
2023/01/03 07:18:32;;;;;;;8.85;4.45;;;;;;;;;;8286528;28;20134;-89
2023/01/03 07:22:35;;;;;;;8.85;3.92;;;;;;;;;;8273965;28;20050;-90
2023/01/03 07:26:39;;;;;;;8.57;5.10;;;;;;;;;;8295486;28;20041;-89
2023/01/03 07:30:45;;;;;;;7.88;4.78;;;;;;;;;;8283835;28;20121;-89
2023/01/03 07:34:48;;;;;;;10.80;5.00;;;;;;;;;;8292582;28;20478;-89
2023/01/03 07:38:51;;;;;;;11.45;5.47;;;;;;;;;;8293443;28;20046;-89
2023/01/03 07:47:15;;;;;;;10.20;4.78;;;;;;;;;;8292920;28;20054;-89
2023/01/03 07:51:20;;;;;;;8.43;4.32;;;;;;;;;;8293458;28;20490;-89
2023/01/03 07:55:22;;;;;;;6.60;4.20;;;;;;;;;;8295354;28;20050;-89
2023/01/03 07:59:25;;;;;;;6.22;4.30;;;;;;;;;;8300632;28;20358;-89
2023/01/03 08:03:29;;;;;;;6.75;3.55;;;;;;;;;;8288756;28;20042;-89
2023/01/03 08:07:32;;;;;;;7.82;3.42;;;;;;;;;;8302114;28;20054;-89
2023/01/03 08:15:56;;;;;;;5.90;3.47;;;;;;;;;;8301682;28;20181;-89
2023/01/03 08:20:00;;;;;;;8.23;4.43;;;;;;;;;;8288417;28;20486;-90
2023/01/03 08:24:04;;;;;;;11.15;5.05;;;;;;;;;;8301385;28;20402;-89
2023/01/03 08:28:07;;;;;;;14.40;6.35;;;;;;;;;;8301347;28;20045;-89
2023/01/03 08:32:10;;;;;;;7.60;3.55;;;;;;;;;;8301130;28;20376;-89
2023/01/03 08:36:15;;;;;;;8.63;5.03;;;;;;;;;;8283710;28;20050;-89
2023/01/03 08:40:19;;;;;;;11.23;4.43;;;;;;;;;;8300991;28;20053;-89
2023/01/03 08:44:21;;;;;;;14.68;4.22;;;;;;;;;;8300306;28;20620;-90
2023/01/03 08:48:25;;;;;;;7.32;3.75;;;;;;;;;;8300849;28;20136;-89
2023/01/03 08:52:29;;;;;;;6.45;3.40;;;;;;;;;;8300613;28;20038;-90
2023/01/03 08:56:33;;;;;;;5.82;2.95;;;;;;;;;;8300467;28;20482;-89
2023/01/03 09:00:36;;;;;;;10.70;4.10;;;;;;;;;;8300049;28;20402;-89
2023/01/03 09:04:39;;;;;;;5.85;2.83;;;;;;;;;;8300363;28;20052;-89
2023/01/03 09:08:43;;;;;;;9.48;4.20;;;;;;;;;;8298053;28;20069;-90
2023/01/03 09:12:46;;;;;;;9.32;4.93;;;;;;;;;;8278065;28;20046;-90
2023/01/03 09:16:49;;;;;;;9.02;3.72;;;;;;;;;;8283300;28;20050;-89
2023/01/03 09:20:52;;;;;;;9.10;3.42;;;;;;;;;;8268623;28;20051;-90
2023/01/03 09:24:56;;;;;;;6.15;3.10;;;;;;;;;;8265173;28;20073;-89
2023/01/03 09:28:59;;;;;;;7.38;3.22;;;;;;;;;;8264265;28;20042;-90
2023/01/03 09:33:01;;;;;;;7.88;4.13;;;;;;;;;;8264504;28;20539;-89
2023/01/03 09:37:04;;;;;;;8.75;3.50;;;;;;;;;;8267571;28;20060;-90
2023/01/03 09:41:15;;;;;;;9.90;3.95;;;;;;;;;;8265824;28;20049;-90
2023/01/03 09:45:25;;;;;;;5.53;2.92;;;;;;;;;;8274236;28;20058;-90
2023/01/03 09:49:27;;;;;;;5.45;2.80;;;;;;;;;;8268639;28;20043;-89
2023/01/03 10:07:21;;;;;;;6.70;3.10;;;;;;;;;;8261187;28;20053;-89
2023/01/03 10:11:36;;;;;;;6.65;2.95;;;;;;;;;;8263719;28;20832;-88
2023/01/03 10:15:51;;;;;;;5.50;3.58;;;;;;;;;;8250934;28;20078;-90
2023/01/03 10:20:08;;;;;;;6.82;3.70;;;;;;;;;;8263221;28;20079;-90
2023/01/03 10:24:18;;;;;;;5.90;2.55;;;;;;;;;;8266225;28;20058;-90
2023/01/03 10:28:25;;;;;;;5.00;2.55;;;;;;;;;;8263893;28;20050;-89
2023/01/03 10:32:49;;;;;;;6.78;3.03;;;;;;;;;;8279035;28;20152;-89
2023/01/03 10:36:55;;;;;;;7.93;2.78;;;;;;;;;;8272710;28;20101;-89
2023/01/03 10:41:00;;;;;;;6.38;3.17;;;;;;;;;;8264459;28;20046;-88
2023/01/03 10:45:06;;;;;;;5.55;2.80;;;;;;;;;;8260660;28;20078;-89
2023/01/03 10:49:20;;;;;;;6.80;3.33;;;;;;;;;;8263104;28;20172;-88
2023/01/03 10:53:23;;;;;;;4.70;2.78;;;;;;;;;;8274135;28;20133;-87
2023/01/03 10:57:47;;;;;;;9.25;3.17;;;;;;;;;;8268646;28;20056;-88
2023/01/03 11:02:01;;;;;;;4.60;2.15;;;;;;;;;;8269388;28;20045;-89
2023/01/03 11:06:14;;;;;;;5.68;2.97;;;;;;;;;;8262657;28;20077;-89
2023/01/03 11:10:19;;;;;;;5.65;2.88;;;;;;;;;;8268439;28;20410;-89
2023/01/03 11:14:25;;;;;;;6.75;2.58;;;;;;;;;;8265618;28;20486;-90
2023/01/03 11:18:29;;;;;;;5.07;2.40;;;;;;;;;;8267959;28;20049;-90
2023/01/03 11:22:39;;;;;;;5.72;2.15;;;;;;;;;;8275760;28;20096;-89
2023/01/03 11:26:49;;;;;;;5.45;3.40;;;;;;;;;;8283972;28;20048;-89
2023/01/03 11:30:59;;;;;;;4.75;2.05;;;;;;;;;;8279467;28;20054;-90
2023/01/03 11:35:31;;;;;;;7.05;3.13;;;;;;;;;;8277025;28;20410;-89
2023/01/03 11:39:52;;;;;;;5.75;3.10;;;;;;;;;;8285728;28;20043;-89
2023/01/03 11:44:19;;;;;;;6.00;2.67;;;;;;;;;;8289680;28;20077;-88
2023/01/03 11:48:49;;;;;;;5.05;3.17;;;;;;;;;;8280607;28;20043;-89
2023/01/03 11:53:00;;;;;;;4.38;2.25;;;;;;;;;;8281802;28;20096;-88
2023/01/03 11:57:13;;;;;;;3.78;2.10;;;;;;;;;;8299971;28;20133;-89
2023/01/03 12:01:26;;;;;;;2.63;1.67;;;;;;;;;;8292391;28;20372;-88
2023/01/03 12:05:45;;;;;;;3.90;2.28;;;;;;;;;;8272477;28;20149;-89
2023/01/03 12:09:54;;;;;;;2.85;2.17;;;;;;;;;;8293188;28;20133;-88
2023/01/03 12:14:05;;;;;;;8.15;2.45;;;;;;;;;;8301740;28;20049;-89
2023/01/03 12:18:16;;;;;;;6.07;2.80;;;;;;;;;;8301233;28;20046;-89
2023/01/03 12:22:25;;;;;;;7.25;2.20;;;;;;;;;;8284824;28;20657;-89
2023/01/03 12:26:30;;;;;;;4.90;2.50;;;;;;;;;;8285749;28;20049;-89
2023/01/03 12:30:41;;;;;;;5.22;2.50;;;;;;;;;;8269163;28;20459;-88
2023/01/03 12:34:50;;;;;;;7.75;2.95;;;;;;;;;;8279060;28;20121;-89
2023/01/03 12:39:01;;;;;;;7.93;2.92;;;;;;;;;;8300889;28;20115;-88
2023/01/03 12:43:10;;;;;;;2.42;2.15;;;;;;;;;;8295348;28;20056;-89
2023/01/03 12:47:24;;;;;;;3.65;2.13;;;;;;;;;;8298542;28;20128;-88
2023/01/03 12:51:29;;;;;;;3.95;2.30;;;;;;;;;;8300318;28;20056;-89
2023/01/03 12:55:43;;;;;;;3.55;2.20;;;;;;;;;;8300230;28;20106;-89
2023/01/03 13:00:22;;;;;;;5.05;2.80;;;;;;;;;;8300009;28;20491;-89
2023/01/03 13:04:33;;;;;;;7.00;3.38;;;;;;;;;;8293153;28;20062;-89
2023/01/03 13:08:41;;;;;;;6.10;2.78;;;;;;;;;;8299712;28;20554;-89
2023/01/03 13:12:52;;;;;;;4.18;2.40;;;;;;;;;;8299721;28;20045;-88
2023/01/03 13:16:56;;;;;;;4.65;2.58;;;;;;;;;;8291473;28;20161;-89
2023/01/03 13:21:01;;;;;;;4.72;2.70;;;;;;;;;;8276110;28;20334;-89
2023/01/03 13:25:31;;;;;;;3.65;2.50;;;;;;;;;;8277413;28;20120;-89
2023/01/03 13:29:56;;;;;;;6.43;3.70;;;;;;;;;;8289296;28;20125;-89
2023/01/03 13:34:26;;;;;;;4.72;2.50;;;;;;;;;;8285945;28;20081;-90
2023/01/03 13:38:34;;;;;;;4.07;2.65;;;;;;;;;;8284958;28;20092;-89
2023/01/03 13:42:38;;;;;;;5.30;3.17;;;;;;;;;;8298323;28;20053;-89
2023/01/03 13:46:42;;;;;;;8.07;3.67;;;;;;;;;;8292689;28;20050;-88
2023/01/03 13:51:24;;;;;;;8.00;3.08;;;;;;;;;;8272804;28;20054;-88
2023/01/03 13:55:36;;;;;;;10.60;3.40;;;;;;;;;;8276135;28;20052;-89
2023/01/03 13:59:46;;;;;;;12.05;7.55;;;;;;;;;;8285334;28;20089;-90
2023/01/03 14:04:17;;;;;;;12.00;7.35;;;;;;;;;;8292676;28;20604;-90
2023/01/03 14:08:31;;;;;;;10.52;6.85;;;;;;;;;;8297205;28;20185;-90
2023/01/03 14:13:09;;;;;;;10.25;4.57;;;;;;;;;;8297697;28;20050;-90
2023/01/03 14:17:20;;;;;;;8.82;4.32;;;;;;;;;;8291325;28;20046;-90
2023/01/03 14:21:28;;;;;;;5.40;3.57;;;;;;;;;;8281762;28;20136;-89
2023/01/03 14:25:34;;;;;;;7.88;5.03;;;;;;;;;;8284069;28;20316;-90
2023/01/03 14:29:40;;;;;;;6.07;3.50;;;;;;;;;;8291699;28;20705;-89
2023/01/03 14:33:49;;;;;;;10.60;4.18;;;;;;;;;;8288320;28;20060;-89
2023/01/03 14:37:52;;;;;;;13.15;6.55;;;;;;;;;;8284187;28;20137;-90
2023/01/03 14:41:56;;;;;;;13.13;6.50;;;;;;;;;;8291037;28;20042;-90
2023/01/03 14:46:05;;;;;;;11.18;5.72;;;;;;;;;;8280878;28;20085;-90
2023/01/03 14:50:15;;;;;;;23.73;7.93;;;;;;;;;;8284066;28;20048;-90
2023/01/03 14:54:19;;;;;;;17.50;7.68;;;;;;;;;;8287153;28;20116;-89
2023/01/03 14:58:35;;;;;;;8.32;5.07;;;;;;;;;;8287505;28;20099;-90
2023/01/03 15:02:40;;;;;;;12.35;6.53;;;;;;;;;;8283062;28;20049;-90
2023/01/03 15:06:58;;;;;;;10.85;6.20;;;;;;;;;;8286456;28;20077;-89
2023/01/03 15:11:05;;;;;;;17.95;8.52;;;;;;;;;;8284164;28;20521;-90
2023/01/03 15:15:21;;;;;;;15.45;7.43;;;;;;;;;;8263415;28;20077;-89
2023/01/03 15:19:27;;;;;;;17.25;5.97;;;;;;;;;;8264647;28;20046;-89
2023/01/03 15:23:39;;;;;;;15.82;7.65;;;;;;;;;;8261827;28;20052;-91
2023/01/03 15:27:44;;;;;;;12.40;5.78;;;;;;;;;;8261779;28;20070;-90
2023/01/03 15:31:50;;;;;;;16.42;7.30;;;;;;;;;;8273504;28;20057;-90
2023/01/03 15:35:55;;;;;;;15.68;7.35;;;;;;;;;;8269023;28;20042;-89
2023/01/03 15:40:05;;;;;;;17.05;8.10;;;;;;;;;;8262164;28;20043;-89
2023/01/03 15:44:09;;;;;;;10.15;5.60;;;;;;;;;;8262443;28;20134;-90
2023/01/03 15:48:17;;;;;;;22.33;8.25;;;;;;;;;;8264325;28;20066;-88
2023/01/03 15:52:20;;;;;;;10.57;5.47;;;;;;;;;;8266994;28;20042;-89
2023/01/03 15:56:30;;;;;;;10.05;4.80;;;;;;;;;;8264240;28;20504;-90
2023/01/03 16:00:33;;;;;;;9.70;5.65;;;;;;;;;;8262121;28;20503;-89
2023/01/03 16:04:36;;;;;;;11.52;4.93;;;;;;;;;;8283725;28;20060;-88
2023/01/03 16:08:41;;;;;;;12.52;4.75;;;;;;;;;;8286224;28;20070;-89
2023/01/03 16:12:45;;;;;;;6.32;3.42;;;;;;;;;;8263922;28;20054;-89
2023/01/03 16:16:55;;;;;;;7.60;3.72;;;;;;;;;;8261026;28;20070;-89
2023/01/03 16:20:58;;;;;;;14.02;4.90;;;;;;;;;;8266518;28;20117;-89
2023/01/03 16:25:01;;;;;;;20.73;7.57;;;;;;;;;;8270410;28;20513;-88
2023/01/03 16:29:06;;;;;;;17.30;8.40;;;;;;;;;;8276239;28;20046;-90
2023/01/03 16:33:17;;;;;;;13.60;6.35;;;;;;;;;;8271037;28;20116;-90
2023/01/03 16:37:20;;;;;;;26.58;10.82;;;;;;;;;;8273426;28;20038;-89
2023/01/03 16:41:23;;;;;;;30.45;12.18;;;;;;;;;;8276079;28;20141;-91
2023/01/03 16:45:27;;;;;;;26.05;11.80;;;;;;;;;;8283552;28;20057;-89
2023/01/03 16:49:32;;;;;;;27.77;12.48;;;;;;;;;;8267493;28;20402;-89
2023/01/03 16:53:37;;;;;;;20.65;9.02;;;;;;;;;;8283582;28;20046;-91
2023/01/03 16:57:40;;;;;;;21.83;9.75;;;;;;;;;;8281959;28;20042;-89
2023/01/03 17:01:44;;;;;;;19.33;9.38;;;;;;;;;;8275627;28;20407;-91
2023/01/03 17:05:49;;;;;;;22.48;9.95;;;;;;;;;;8267219;28;20050;-91
2023/01/03 17:09:52;;;;;;;29.73;12.80;;;;;;;;;;8276341;28;20070;-88
2023/01/03 17:13:59;;;;;;;29.67;12.75;;;;;;;;;;8266420;28;20057;-88
2023/01/03 17:18:04;;;;;;;33.17;13.93;;;;;;;;;;8276553;28;20360;-89
2023/01/03 17:22:12;;;;;;;31.20;12.23;;;;;;;;;;8280986;28;20098;-88
2023/01/03 17:26:18;;;;;;;30.52;13.43;;;;;;;;;;8279963;28;20046;-91
2023/01/03 17:30:23;;;;;;;32.40;13.65;;;;;;;;;;8292655;28;20049;-90
2023/01/03 17:34:29;;;;;;;23.50;9.73;;;;;;;;;;8295415;28;20371;-88
2023/01/03 17:38:33;;;;;;;16.80;7.95;;;;;;;;;;8288579;28;20050;-88
2023/01/03 17:42:36;;;;;;;19.35;8.45;;;;;;;;;;8280014;28;20046;-87
2023/01/03 17:51:03;;;;;;;13.77;6.95;;;;;;;;;;8297860;28;20077;-87
2023/01/03 17:55:19;;;;;;;16.55;6.95;;;;;;;;;;8270424;28;20531;-88
2023/01/03 17:59:22;;;;;;;16.67;7.13;;;;;;;;;;8278087;28;20493;-89
2023/01/03 18:03:25;;;;;;;32.45;16.15;;;;;;;;;;8265951;28;20621;-88
2023/01/03 18:07:31;;;;;;;57.80;23.52;;;;;;;;;;8274950;28;20049;-88
2023/01/03 18:11:35;;;;;;;36.90;15.40;;;;;;;;;;8277191;28;20054;-87
2023/01/03 18:15:37;;;;;;;47.95;25.05;;;;;;;;;;8284489;28;20092;-87
2023/01/03 18:19:41;;;;;;;53.67;25.10;;;;;;;;;;8290344;28;20046;-87
2023/01/03 18:23:46;;;;;;;43.10;21.98;;;;;;;;;;8282994;28;20497;-89
2023/01/03 18:27:51;;;;;;;47.20;23.83;;;;;;;;;;8282690;28;20490;-89
2023/01/03 18:31:55;;;;;;;35.88;18.20;;;;;;;;;;8290641;28;20049;-89
2023/01/03 18:36:00;;;;;;;33.90;15.43;;;;;;;;;;8283425;28;20093;-86
2023/01/03 18:40:07;;;;;;;27.92;13.82;;;;;;;;;;8273455;28;20109;-86
2023/01/03 18:44:19;;;;;;;35.28;16.30;;;;;;;;;;8286614;28;20526;-87
2023/01/03 18:48:23;;;;;;;41.45;18.60;;;;;;;;;;8264193;28;20050;-86
2023/01/03 18:52:32;;;;;;;39.03;19.42;;;;;;;;;;8268049;28;20049;-85
2023/01/03 18:56:38;;;;;;;53.83;24.40;;;;;;;;;;8263901;28;20415;-86
2023/01/03 19:00:42;;;;;;;46.58;21.90;;;;;;;;;;8265140;28;20092;-86
2023/01/03 19:04:45;;;;;;;47.95;23.27;;;;;;;;;;8268007;28;20057;-86
2023/01/03 19:08:48;;;;;;;37.15;18.77;;;;;;;;;;8276400;28;20650;-86
2023/01/03 19:12:54;;;;;;;46.03;21.88;;;;;;;;;;8268490;28;20494;-87
2023/01/03 19:16:58;;;;;;;56.03;23.58;;;;;;;;;;8263650;28;20057;-88
2023/01/03 19:21:01;;;;;;;58.25;24.73;;;;;;;;;;8265430;28;20034;-87
2023/01/03 19:25:08;;;;;;;58.45;24.65;;;;;;;;;;8266163;28;20058;-85
2023/01/03 19:29:19;;;;;;;52.85;22.77;;;;;;;;;;8265908;28;20046;-90
2023/01/03 19:33:23;;;;;;;65.97;26.27;;;;;;;;;;8273851;28;20041;-89
2023/01/03 19:37:27;;;;;;;85.95;31.30;;;;;;;;;;8277827;28;20054;-89
2023/01/03 19:42:46;;;;;;;80.78;30.60;;;;;;;;;;8266941;28;20108;-85
2023/01/03 19:45:57;;;;;;;79.72;29.38;;;;;;;;;;8267306;28;20058;-88
2023/01/03 19:50:08;;;;;;;77.80;29.30;;;;;;;;;;8250185;28;20077;-85
2023/01/03 19:54:11;;;;;;;47.22;21.08;;;;;;;;;;8270847;28;20495;-88
2023/01/03 19:58:20;;;;;;;79.70;28.80;;;;;;;;;;8272982;28;20482;-87
2023/01/03 20:02:40;;;;;;;169.00;51.53;;;;;;;;;;8293761;28;20129;-86
2023/01/03 20:06:44;;;;;;;70.68;30.67;;;;;;;;;;8277704;28;20509;-87
2023/01/03 20:10:47;;;;;;;75.00;27.50;;;;;;;;;;8271918;28;20049;-91
2023/01/03 20:14:53;;;;;;;55.85;24.42;;;;;;;;;;8270753;28;20482;-85
2023/01/03 20:18:58;;;;;;;56.83;23.65;;;;;;;;;;8266472;28;20074;-87
2023/01/03 20:23:04;;;;;;;66.88;26.90;;;;;;;;;;8285819;28;20057;-89
2023/01/03 20:27:13;;;;;;;56.15;27.23;;;;;;;;;;8275192;28;20137;-85
2023/01/03 20:31:20;;;;;;;58.33;28.20;;;;;;;;;;8285021;28;20146;-86
2023/01/03 20:35:28;;;;;;;87.22;37.13;;;;;;;;;;8279780;28;20132;-85
2023/01/03 20:39:35;;;;;;;39.10;20.13;;;;;;;;;;8291126;28;20050;-85
2023/01/03 20:43:39;;;;;;;50.15;22.08;;;;;;;;;;8298055;28;20406;-87
2023/01/03 20:47:44;;;;;;;44.88;20.40;;;;;;;;;;8297812;28;20057;-86
2023/01/03 20:51:50;;;;;;;101.20;41.95;;;;;;;;;;8285814;28;20046;-86
2023/01/03 20:55:53;;;;;;;182.57;65.32;;;;;;;;;;8299388;28;20479;-87
2023/01/03 20:59:57;;;;;;;68.25;29.55;;;;;;;;;;8299913;28;20129;-87
2023/01/03 21:04:00;;;;;;;60.00;28.80;;;;;;;;;;8300072;28;20490;-87
2023/01/03 21:12:35;;;;;;;94.68;42.42;;;;;;;;;;8300115;28;20529;-86
2023/01/03 21:16:41;;;;;;;181.77;68.53;;;;;;;;;;8300004;28;20072;-86
2023/01/03 21:20:45;;;;;;;579.63;233.88;;;;;;;;;;8299693;28;20593;-87
2023/01/03 21:24:49;;;;;;;68.80;32.80;;;;;;;;;;8299659;28;20129;-86
2023/01/03 21:28:55;;;;;;;42.65;17.70;;;;;;;;;;8299640;28;20045;-86
2023/01/03 21:32:59;;;;;;;45.92;22.38;;;;;;;;;;8299422;28;20064;-88
2023/01/03 21:37:02;;;;;;;53.40;24.67;;;;;;;;;;8299449;28;20045;-86
2023/01/03 21:41:12;;;;;;;49.33;22.60;;;;;;;;;;8299575;28;20038;-87
2023/01/03 21:45:15;;;;;;;46.50;21.48;;;;;;;;;;8299031;28;20136;-87
2023/01/03 21:49:19;;;;;;;65.20;29.58;;;;;;;;;;8298930;28;20092;-87
2023/01/03 21:53:23;;;;;;;79.30;34.05;;;;;;;;;;8298868;28;20050;-86
2023/01/03 21:57:33;;;;;;;49.45;23.23;;;;;;;;;;8298536;28;20100;-86
2023/01/03 22:04:14;;;;;;;53.95;23.63;;;;;;;;;;8298762;28;20046;-86
2023/01/03 22:06:07;;;;;;;39.22;15.27;;;;;;;;;;8298584;28;20052;-87
2023/01/03 22:10:18;;;;;;;90.97;35.83;;;;;;;;;;8298238;28;20172;-86
2023/01/03 22:14:23;;;;;;;40.05;18.83;;;;;;;;;;8298222;28;20046;-87
2023/01/03 22:18:29;;;;;;;38.60;21.00;;;;;;;;;;8280217;28;20050;-87
2023/01/03 22:22:36;;;;;;;37.03;16.88;;;;;;;;;;8298059;28;20589;-91
2023/01/03 22:26:39;;;;;;;35.28;17.40;;;;;;;;;;8280065;28;20050;-86
2023/01/03 22:30:44;;;;;;;24.30;12.02;;;;;;;;;;8297690;28;20132;-86
2023/01/03 22:34:46;;;;;;;30.30;14.07;;;;;;;;;;8297687;28;20046;-86
2023/01/03 22:38:52;;;;;;;32.05;13.20;;;;;;;;;;8297339;28;20129;-86
2023/01/03 22:42:55;;;;;;;25.55;11.13;;;;;;;;;;8297188;28;20045;-87
2023/01/03 22:46:59;;;;;;;26.45;12.60;;;;;;;;;;8297237;28;20137;-87
2023/01/03 22:51:03;;;;;;;95.38;30.50;;;;;;;;;;8291752;28;20050;-88
2023/01/03 22:55:07;;;;;;;38.47;15.55;;;;;;;;;;8290065;28;20042;-86
2023/01/03 22:59:10;;;;;;;36.40;15.18;;;;;;;;;;8296937;28;20126;-87
2023/01/03 23:03:17;;;;;;;36.45;15.57;;;;;;;;;;8296926;28;20401;-87
2023/01/03 23:07:20;;;;;;;28.13;13.95;;;;;;;;;;8283762;28;20069;-86
2023/01/03 23:15:45;;;;;;;48.42;17.65;;;;;;;;;;8296737;28;20068;-86
2023/01/03 23:19:49;;;;;;;31.73;14.48;;;;;;;;;;8296686;28;20060;-86
2023/01/03 23:23:52;;;;;;;47.47;18.40;;;;;;;;;;8296659;28;20053;-86
2023/01/03 23:27:55;;;;;;;30.88;13.60;;;;;;;;;;8284301;28;20409;-87
2023/01/03 23:31:58;;;;;;;39.92;16.55;;;;;;;;;;8303254;28;20486;-88
2023/01/03 23:36:05;;;;;;;28.25;12.82;;;;;;;;;;8302905;28;20129;-86
2023/01/03 23:40:10;;;;;;;81.30;29.05;;;;;;;;;;8294858;28;20483;-86
2023/01/03 23:44:13;;;;;;;99.78;32.80;;;;;;;;;;8298250;28;20049;-86
2023/01/03 23:48:16;;;;;;;112.63;37.63;;;;;;;;;;8302773;28;20050;-90
2023/01/03 23:52:20;;;;;;;42.88;16.90;;;;;;;;;;8302498;28;20441;-87
2023/01/03 23:56:24;;;;;;;39.22;14.57;;;;;;;;;;8302545;28;20056;-87
